| time (UTC) | temp C | wind direction | speed KPH | gust KPH | rain 1hr cm | rain 24hr cm | rain mn cm | humidity % | barometer mb |
| 20260507113049 | 5 | 248 | 9.7 | 16.1 | 0.00 | 0.00 | 0.00 | 84 | 1013.3 |
| 20260507111542 | 5 | 228 | 8.0 | 14.5 | 0.00 | 0.00 | 0.00 | 83 | 1013.3 |
| 20260507110041 | 5 | 239 | 9.7 | 19.3 | 0.00 | 0.00 | 0.00 | 83 | 1013.4 |
| 20260507104539 | 5 | 246 | 9.7 | 17.7 | 0.00 | 0.00 | 0.00 | 83 | 1013.4 |
| 20260507103036 | 5 | 254 | 8.0 | 16.1 | 0.00 | 0.00 | 0.00 | 82 | 1013.3 |
| 20260507101535 | 5 | 230 | 8.0 | 17.7 | 0.00 | 0.00 | 0.00 | 81 | 1013.4 |
| 20260507100037 | 5 | 223 | 9.7 | 20.9 | 0.00 | 0.00 | 0.00 | 80 | 1013.5 |
| 20260507094532 | 6 | 255 | 9.7 | 20.9 | 0.00 | 0.00 | 0.00 | 80 | 1013.6 |
| 20260507093030 | 6 | 252 | 12.9 | 22.5 | 0.00 | 0.00 | 0.00 | 79 | 1013.6 |
| 20260507091528 | 6 | 258 | 14.5 | 20.9 | 0.00 | 0.00 | 0.00 | 78 | 1013.8 |
| 20260507090026 | 6 | 243 | 11.3 | 17.7 | 0.00 | 0.00 | 0.00 | 78 | 1013.9 |
| 20260507084524 | 6 | 245 | 12.9 | 24.1 | 0.00 | 0.00 | 0.00 | 77 | 1014.1 |
| 20260507083021 | 6 | 233 | 11.3 | 19.3 | 0.00 | 0.00 | 0.00 | 76 | 1014.2 |
| 20260507081517 | 7 | 247 | 9.7 | 16.1 | 0.00 | 0.00 | 0.00 | 75 | 1014.3 |
| 20260507080015 | 7 | 237 | 11.3 | 20.9 | 0.00 | 0.00 | 0.00 | 75 | 1014.6 |
| 20260507074525 | 7 | 238 | 12.9 | 22.5 | 0.00 | 0.00 | 0.00 | 74 | 1014.8 |
| 20260507073010 | 7 | 238 | 14.5 | 24.1 | 0.00 | 0.00 | 0.00 | 74 | 1015.1 |
| 20260507071508 | 7 | 252 | 11.3 | 20.9 | 0.00 | 0.00 | 0.00 | 72 | 1015.2 |
| 20260507070010 | 7 | 240 | 12.9 | 22.5 | 0.00 | 0.00 | 0.00 | 71 | 1015.3 |
| 20260507064503 | 8 | 250 | 11.3 | 22.5 | 0.00 | 0.00 | 0.00 | 70 | 1015.4 |
| 20260507063115 | 7 | 248 | 11.3 | 22.5 | 0.00 | 0.00 | 0.00 | 69 | 1015.7 |
| 20260507061558 | 8 | 243 | 12.9 | 19.3 | 0.00 | 0.00 | 0.00 | 68 | 1015.8 |
| 20260507060055 | 8 | 256 | 16.1 | 24.1 | 0.00 | 0.00 | 0.00 | 67 | 1015.8 |
| 20260507054556 | 8 | 252 | 17.7 | 27.4 | 0.00 | 0.00 | 0.00 | 64 | 1015.8 |
| 20260507053052 | 8 | 232 | 14.5 | 24.1 | 0.00 | 0.00 | 0.00 | 61 | 1015.9 |
| 20260507051549 | 8 | 247 | 12.9 | 24.1 | 0.00 | 0.00 | 0.00 | 59 | 1015.9 |
| 20260507050047 | 8 | 247 | 14.5 | 22.5 | 0.00 | 0.00 | 0.00 | 58 | 1016.0 |
| 20260507044546 | 8 | 263 | 9.7 | 20.9 | 0.00 | 0.00 | 0.00 | 57 | 1016.1 |
| 20260507043048 | 8 | 238 | 12.9 | 16.1 | 0.00 | 0.00 | 0.00 | 56 | 1016.3 |
| 20260507041547 | 8 | 242 | 12.9 | 17.7 | 0.00 | 0.00 | 0.00 | 55 | 1016.3 |
| 20260507040048 | 8 | 250 | 11.3 | 17.7 | 0.00 | 0.00 | 0.00 | 51 | 1016.4 |
| 20260507034557 | 9 | 248 | 8.0 | 14.5 | 0.00 | 0.00 | 0.00 | 47 | 1016.4 |
| 20260507033100 | 9 | 219 | 6.4 | 12.9 | 0.00 | 0.00 | 0.00 | 46 | 1016.6 |
| 20260507031542 | 9 | 248 | 6.4 | 11.3 | 0.00 | 0.00 | 0.00 | 44 | 1016.6 |
| 20260507030041 | 9 | 238 | 6.4 | 9.7 | 0.00 | 0.00 | 0.00 | 43 | 1016.6 |
| 20260507024551 | 9 | 173 | 3.2 | 4.8 | 0.00 | 0.00 | 0.00 | 42 | 1016.5 |
| 20260507023040 | 9 | 232 | 0.0 | 1.6 | 0.00 | 0.00 | 0.00 | 42 | 1016.4 |
| 20260507021540 | 9 | 232 | 0.0 | 1.6 | 0.00 | 0.00 | 0.00 | 43 | 1016.2 |
| 20260507020039 | 10 | 232 | 0.0 | 3.2 | 0.00 | 0.00 | 0.00 | 39 | 1016.1 |
| 20260507014538 | 10 | 254 | 1.6 | 3.2 | 0.00 | 0.00 | 0.00 | 38 | 1016.1 |
| 20260507013040 | 10 | 263 | 0.0 | 4.8 | 0.00 | 0.00 | 0.00 | 37 | 1016.0 |
| 20260507011540 | 12 | 256 | 4.8 | 9.7 | 0.00 | 0.00 | 0.00 | 35 | 1016.0 |
| 20260507010040 | 13 | 298 | 4.8 | 8.0 | 0.00 | 0.00 | 0.00 | 30 | 1016.1 |
| 20260507004536 | 13 | 296 | 9.7 | 14.5 | 0.00 | 0.00 | 0.00 | 30 | 1016.1 |
| 20260507003036 | 14 | 286 | 12.9 | 20.9 | 0.00 | 0.00 | 0.00 | 28 | 1016.2 |
| 20260507001556 | 15 | 336 | 16.1 | 27.4 | 0.00 | 0.00 | 0.00 | 27 | 1016.2 |
| 20260507000035 | 14 | 341 | 16.1 | 24.1 | 0.00 | 0.00 | 0.00 | 28 | 1016.4 |
| 20260506234546 | 15 | 248 | 12.9 | 20.9 | 0.00 | 0.00 | 0.00 | 29 | 1016.5 |
| 20260506233033 | 15 | 298 | 17.7 | 22.5 | 0.00 | 0.00 | 0.00 | 27 | 1016.5 |
| 20260506231535 | 15 | 254 | 16.1 | 29.0 | 0.00 | 0.00 | 0.00 | 26 | 1016.7 |
| 20260506230031 | 14 | 323 | 14.5 | 24.1 | 0.00 | 0.00 | 0.00 | 30 | 1016.9 |
| 20260506224531 | 15 | 283 | 19.3 | 33.8 | 0.00 | 0.00 | 0.00 | 27 | 1016.9 |
| 20260506223031 | 15 | 301 | 16.1 | 25.7 | 0.00 | 0.00 | 0.00 | 27 | 1016.9 |
| 20260506221528 | 15 | 332 | 9.7 | 22.5 | 0.00 | 0.00 | 0.00 | 27 | 1016.9 |
| 20260506220034 | 15 | 284 | 8.0 | 22.5 | 0.00 | 0.00 | 0.00 | 34 | 1017.2 |
| 20260506214529 | 15 | 355 | 12.9 | 24.1 | 0.00 | 0.00 | 0.00 | 28 | 1017.3 |
| 20260506213024 | 16 | 286 | 14.5 | 29.0 | 0.00 | 0.00 | 0.00 | 28 | 1017.5 |
| 20260506211523 | 15 | 317 | 16.1 | 27.4 | 0.00 | 0.00 | 0.00 | 30 | 1017.6 |
| 20260506210022 | 14 | 273 | 12.9 | 24.1 | 0.00 | 0.00 | 0.00 | 29 | 1017.8 |
| 20260506204523 | 15 | 360 | 19.3 | 27.4 | 0.00 | 0.00 | 0.00 | 29 | 1018.1 |
| 20260506203021 | 13 | 271 | 11.3 | 25.7 | 0.00 | 0.00 | 0.00 | 29 | 1018.2 |
| 20260506201521 | 14 | 279 | 12.9 | 30.6 | 0.00 | 0.00 | 0.00 | 31 | 1018.3 |
| 20260506200019 | 13 | 360 | 6.4 | 19.3 | 0.00 | 0.00 | 0.00 | 30 | 1018.4 |
| 20260506194531 | 13 | 322 | 19.3 | 24.1 | 0.00 | 0.00 | 0.00 | 30 | 1018.7 |
| 20260506193018 | 14 | 270 | 17.7 | 30.6 | 0.00 | 0.00 | 0.00 | 29 | 1018.7 |
| 20260506191518 | 14 | 346 | 11.3 | 30.6 | 0.00 | 0.00 | 0.00 | 30 | 1018.8 |
| 20260506190019 | 13 | 310 | 14.5 | 29.0 | 0.00 | 0.00 | 0.00 | 30 | 1018.9 |
| 20260506184516 | 13 | 283 | 16.1 | 27.4 | 0.00 | 0.00 | 0.00 | 32 | 1019.1 |
| 20260506183017 | 13 | 303 | 11.3 | 25.7 | 0.00 | 0.00 | 0.00 | 29 | 1019.0 |
| 20260506181516 | 12 | 333 | 19.3 | 27.4 | 0.00 | 0.00 | 0.00 | 30 | 1019.1 |
| 20260506180013 | 14 | 290 | 16.1 | 30.6 | 0.00 | 0.00 | 0.00 | 28 | 1019.4 |
| 20260506174511 | 14 | 287 | 14.5 | 35.4 | 0.00 | 0.00 | 0.00 | 29 | 1019.5 |
| 20260506173009 | 13 | 11 | 20.9 | 33.8 | 0.00 | 0.00 | 0.00 | 31 | 1019.7 |
| 20260506171505 | 13 | 317 | 19.3 | 27.4 | 0.00 | 0.00 | 0.00 | 32 | 1019.8 |
| 20260506170002 | 12 | 320 | 12.9 | 25.7 | 0.00 | 0.00 | 0.00 | 34 | 1019.9 |
| 20260506164501 | 12 | 325 | 12.9 | 20.9 | 0.00 | 0.00 | 0.00 | 37 | 1020.1 |
| 20260506163058 | 12 | 319 | 17.7 | 27.4 | 0.00 | 0.00 | 0.00 | 33 | 1020.1 |
| 20260506161600 | 12 | 300 | 12.9 | 19.3 | 0.00 | 0.00 | 0.00 | 34 | 1020.1 |
| 20260506160109 | 10 | 46 | 6.4 | 17.7 | 0.00 | 0.00 | 0.00 | 39 | 1020.2 |
| 20260506154553 | 11 | 307 | 11.3 | 19.3 | 0.00 | 0.00 | 0.00 | 35 | 1020.1 |
| 20260506153053 | 10 | 305 | 9.7 | 24.1 | 0.00 | 0.00 | 0.00 | 36 | 1020.3 |
| 20260506151548 | 10 | 281 | 8.0 | 16.1 | 0.00 | 0.00 | 0.00 | 40 | 1020.1 |
| 20260506150049 | 9 | 242 | 3.2 | 16.1 | 0.00 | 0.00 | 0.00 | 43 | 1020.2 |
| 20260506144547 | 9 | 291 | 6.4 | 16.1 | 0.00 | 0.00 | 0.00 | 46 | 1020.1 |
| 20260506143040 | 8 | 211 | 3.2 | 9.7 | 0.00 | 0.00 | 0.00 | 49 | 1020.1 |
| 20260506141536 | 8 | 304 | 4.8 | 6.4 | 0.00 | 0.00 | 0.00 | 47 | 1020.1 |
| 20260506140037 | 8 | 311 | 4.8 | 8.0 | 0.00 | 0.00 | 0.00 | 49 | 1020.1 |
| 20260506134533 | 8 | 315 | 1.6 | 6.4 | 0.00 | 0.00 | 0.00 | 50 | 1019.9 |
| 20260506133031 | 7 | 11 | 1.6 | 8.0 | 0.00 | 0.00 | 0.00 | 51 | 1019.8 |
| 20260506131543 | 7 | 355 | 6.4 | 9.7 | 0.00 | 0.00 | 0.00 | 53 | 1019.6 |
| 20260506130037 | 6 | 350 | 4.8 | 9.7 | 0.00 | 0.00 | 0.00 | 58 | 1019.5 |
| 20260506124523 | 5 | 344 | 4.8 | 9.7 | 0.00 | 0.00 | 0.00 | 64 | 1019.3 |
| 20260506123020 | 4 | 344 | 6.4 | 9.7 | 0.00 | 0.00 | 0.00 | 65 | 1019.1 |
| 20260506121516 | 3 | 348 | 4.8 | 8.0 | 0.00 | 0.00 | 0.00 | 67 | 1018.8 |
| 20260506120017 | 3 | 350 | 3.2 | 6.4 | 0.00 | 0.00 | 0.00 | 66 | 1018.5 |
| 20260506114511 | 3 | 5 | 0.0 | 0.0 | 0.00 | 0.00 | 0.00 | 65 | 1018.4 |